createdAt,value
2022-10-31T00:01:00.165Z,25.20
2022-10-31T00:03:27.303Z,26.67
2022-10-31T00:05:54.143Z,32.03
2022-10-31T00:08:20.509Z,26.40
2022-10-31T00:10:47.181Z,27.10
2022-10-31T00:13:15.166Z,27.65
2022-10-31T00:15:41.985Z,29.03
2022-10-31T00:18:10.209Z,28.85
2022-10-31T00:20:37.018Z,29.63
2022-10-31T00:23:04.585Z,28.30
2022-10-31T00:25:35.634Z,29.13
2022-10-31T00:28:02.805Z,27.97
2022-10-31T00:30:29.303Z,32.58
2022-10-31T00:32:55.895Z,28.98
2022-10-31T00:35:22.461Z,29.88
2022-10-31T00:37:48.798Z,31.83
2022-10-31T00:40:15.229Z,30.73
2022-10-31T00:42:42.546Z,32.72
2022-10-31T00:45:10.737Z,29.52
2022-10-31T00:47:37.194Z,32.63
2022-10-31T00:50:05.271Z,30.40
2022-10-31T00:52:31.631Z,33.03
2022-10-31T00:54:57.985Z,33.80
2022-10-31T00:57:24.329Z,38.45
2022-10-31T00:59:50.673Z,37.55
2022-10-31T01:02:17.526Z,36.40
2022-10-31T01:04:43.971Z,32.90
2022-10-31T01:07:12.236Z,38.15
2022-10-31T01:09:38.604Z,40.70
2022-10-31T01:12:05.090Z,34.85
2022-10-31T01:14:31.443Z,29.52
2022-10-31T01:16:57.831Z,38.20
2022-10-31T01:19:24.198Z,31.20
2022-10-31T01:21:50.542Z,32.38
2022-10-31T01:24:16.902Z,28.60
2022-10-31T01:26:43.258Z,30.83
2022-10-31T01:29:09.891Z,30.63
2022-10-31T01:31:39.075Z,32.40
2022-10-31T01:34:07.490Z,32.28
2022-10-31T01:36:36.486Z,37.88
2022-10-31T01:39:06.041Z,36.70
2022-10-31T01:41:35.189Z,33.47
2022-10-31T01:44:23.475Z,40.88
2022-10-31T01:47:06.910Z,35.22
2022-10-31T01:49:41.315Z,35.13
2022-10-31T01:52:17.614Z,34.25
2022-10-31T01:54:49.450Z,31.30
2022-10-31T01:57:16.709Z,29.10
2022-10-31T01:59:50.475Z,34.80
2022-10-31T02:02:19.568Z,37.67
2022-10-31T02:04:48.368Z,36.47
2022-10-31T02:07:19.272Z,28.13
2022-10-31T02:09:48.427Z,29.08
2022-10-31T02:12:16.200Z,34.22
2022-10-31T02:14:43.105Z,33.90
2022-10-31T02:17:09.651Z,26.25
2022-10-31T02:19:48.849Z,32.27
2022-10-31T02:22:25.608Z,31.08
2022-10-31T02:25:16.337Z,29.83
2022-10-31T02:27:57.973Z,36.60
2022-10-31T02:30:36.437Z,35.25
2022-10-31T02:33:17.130Z,37.73
2022-10-31T02:35:56.583Z,36.05
2022-10-31T02:38:44.565Z,40.40
2022-10-31T02:41:18.304Z,41.58
2022-10-31T02:43:57.152Z,43.60
2022-10-31T02:46:39.703Z,42.07
2022-10-31T02:49:19.475Z,43.38
2022-10-31T02:51:46.310Z,40.97
2022-10-31T02:54:24.114Z,36.00
2022-10-31T02:56:53.786Z,39.50
2022-10-31T02:59:20.884Z,42.57
2022-10-31T03:01:56.077Z,41.97
2022-10-31T03:04:33.590Z,40.00
2022-10-31T03:07:36.759Z,39.08
2022-10-31T03:10:13.764Z,42.45
2022-10-31T03:12:55.978Z,41.90
2022-10-31T03:15:34.997Z,41.72
2022-10-31T03:18:10.309Z,46.25
2022-10-31T03:20:49.000Z,44.38
2022-10-31T03:23:19.304Z,50.45
2022-10-31T03:25:47.671Z,46.10
2022-10-31T03:30:46.866Z,42.20
2022-10-31T03:33:19.685Z,53.63
2022-10-31T03:35:49.246Z,44.20
2022-10-31T03:38:15.814Z,44.63
2022-10-31T03:40:46.763Z,45.63
2022-10-31T03:43:18.431Z,49.67
2022-10-31T03:45:47.554Z,44.47
2022-10-31T03:48:15.805Z,46.03
2022-10-31T03:50:48.186Z,51.07
2022-10-31T03:53:23.777Z,49.75
2022-10-31T03:56:02.004Z,49.17
2022-10-31T03:58:40.259Z,50.42
2022-10-31T04:01:12.472Z,53.45
2022-10-31T04:03:39.369Z,49.10
2022-10-31T04:06:10.642Z,43.40
2022-10-31T04:08:46.637Z,50.55
2022-10-31T04:11:16.131Z,49.70
2022-10-31T04:13:45.135Z,38.28
2022-10-31T04:16:16.949Z,40.50
2022-10-31T04:18:44.041Z,41.40
2022-10-31T04:21:10.387Z,44.13
2022-10-31T04:23:37.436Z,48.40
2022-10-31T04:26:03.989Z,45.35
2022-10-31T04:28:30.407Z,50.90
2022-10-31T04:30:56.846Z,50.38
2022-10-31T04:33:23.177Z,54.40
2022-10-31T04:35:49.552Z,49.53
2022-10-31T04:38:16.086Z,45.03
2022-10-31T04:40:42.492Z,40.77
2022-10-31T04:43:08.988Z,45.40
2022-10-31T04:45:35.387Z,43.55
2022-10-31T04:48:02.188Z,45.92
2022-10-31T04:50:28.890Z,43.85
2022-10-31T04:52:55.254Z,43.43
2022-10-31T04:55:21.615Z,46.33
2022-10-31T04:57:50.022Z,47.13
2022-10-31T05:00:19.055Z,47.30
2022-10-31T05:02:46.889Z,49.22
2022-10-31T05:05:14.385Z,50.83
2022-10-31T05:07:45.471Z,48.42
2022-10-31T05:10:15.590Z,49.33
2022-10-31T05:12:48.978Z,45.45
2022-10-31T05:15:15.843Z,36.90
2022-10-31T05:17:42.288Z,39.50
2022-10-31T05:20:09.154Z,36.72
2022-10-31T05:22:35.547Z,42.20
2022-10-31T05:25:01.935Z,38.72
2022-10-31T05:27:28.308Z,41.92
2022-10-31T05:29:54.728Z,36.40
2022-10-31T05:32:21.091Z,44.63
2022-10-31T05:34:47.443Z,46.05
2022-10-31T05:37:13.784Z,38.95
2022-10-31T05:39:40.118Z,46.05
2022-10-31T05:42:06.482Z,41.57
2022-10-31T05:44:32.842Z,51.03
2022-10-31T05:46:59.190Z,48.20
2022-10-31T05:49:25.554Z,42.83
2022-10-31T05:51:51.918Z,103.00
2022-10-31T05:54:18.289Z,81.27
2022-10-31T05:56:44.637Z,66.20
2022-10-31T05:59:10.969Z,90.10
2022-10-31T06:01:37.362Z,103.20
2022-10-31T06:04:03.883Z,109.90
2022-10-31T06:06:30.227Z,182.93
2022-10-31T06:08:56.636Z,132.00
2022-10-31T06:11:23.168Z,130.80
2022-10-31T06:13:49.546Z,57.40
2022-10-31T06:16:15.890Z,54.25
2022-10-31T06:18:42.250Z,47.23
2022-10-31T06:21:08.601Z,68.18
2022-10-31T06:23:35.107Z,59.75
2022-10-31T06:26:01.473Z,62.00
2022-10-31T06:28:27.811Z,82.22
2022-10-31T06:30:54.186Z,144.77
2022-10-31T06:33:20.563Z,192.60
2022-10-31T06:35:47.993Z,249.80
2022-10-31T06:38:15.319Z,219.05
2022-10-31T06:40:41.805Z,125.75
2022-10-31T06:43:08.154Z,101.93
2022-10-31T06:45:35.178Z,158.68
2022-10-31T06:48:16.744Z,64.20
2022-10-31T06:50:44.215Z,59.25
2022-10-31T06:55:42.935Z,54.43
2022-10-31T06:58:11.110Z,91.10
2022-10-31T07:00:37.890Z,94.30
2022-10-31T07:03:07.661Z,63.60
2022-10-31T07:05:34.423Z,67.75
2022-10-31T07:08:04.277Z,72.23
2022-10-31T07:10:35.705Z,73.00
2022-10-31T07:13:10.596Z,70.53
2022-10-31T07:15:38.754Z,66.78
2022-10-31T07:18:07.237Z,64.68
2022-10-31T07:20:34.101Z,61.97
2022-10-31T07:23:01.982Z,55.67
2022-10-31T07:25:28.771Z,64.80
2022-10-31T07:27:55.318Z,86.70
2022-10-31T07:30:21.767Z,109.03
2022-10-31T07:32:49.843Z,61.67
2022-10-31T07:35:18.947Z,93.40
2022-10-31T07:37:45.425Z,75.47
2022-10-31T07:40:12.567Z,66.15
2022-10-31T07:42:46.769Z,111.78
2022-10-31T07:45:15.403Z,70.80
2022-10-31T07:47:49.483Z,61.25
2022-10-31T07:50:29.909Z,44.28
2022-10-31T07:53:08.269Z,51.22
2022-10-31T07:55:35.260Z,89.80
2022-10-31T07:58:11.075Z,97.50
2022-10-31T08:00:39.186Z,81.03
2022-10-31T08:03:17.475Z,70.45
2022-10-31T08:05:48.204Z,91.30
2022-10-31T08:08:15.431Z,62.63
2022-10-31T08:10:42.292Z,72.77
2022-10-31T08:13:14.126Z,51.53
2022-10-31T08:15:42.559Z,52.42
2022-10-31T08:18:15.794Z,40.45
2022-10-31T08:20:43.601Z,34.50
2022-10-31T08:23:11.702Z,33.70
2022-10-31T08:25:39.315Z,27.27
2022-10-31T08:28:07.243Z,26.60
2022-10-31T08:30:35.361Z,28.05
2022-10-31T08:33:09.233Z,29.83
2022-10-31T08:35:35.591Z,28.00
2022-10-31T08:38:02.949Z,26.08
2022-10-31T08:40:31.340Z,26.08
2022-10-31T08:43:02.955Z,25.08
2022-10-31T08:45:30.887Z,21.92
2022-10-31T08:47:59.150Z,22.30
2022-10-31T08:50:26.146Z,23.13
2022-10-31T08:53:04.600Z,22.35
2022-10-31T08:55:31.932Z,20.17
2022-10-31T08:58:00.091Z,19.08
2022-10-31T09:00:26.848Z,20.10
2022-10-31T09:03:00.743Z,20.50
2022-10-31T09:05:27.779Z,20.17
2022-10-31T09:07:59.153Z,19.75
2022-10-31T09:10:27.010Z,19.83
2022-10-31T09:13:01.902Z,21.53
2022-10-31T09:15:29.587Z,18.98
2022-10-31T09:17:55.950Z,18.25
2022-10-31T09:20:22.433Z,19.73
2022-10-31T09:22:49.282Z,21.55
2022-10-31T09:25:15.676Z,20.90
2022-10-31T09:27:42.021Z,21.40
2022-10-31T09:30:09.190Z,20.10
2022-10-31T09:32:35.530Z,21.35
2022-10-31T09:35:01.967Z,21.25
2022-10-31T09:37:28.379Z,20.93
2022-10-31T09:39:54.739Z,20.33
2022-10-31T09:42:36.261Z,19.95
2022-10-31T09:45:30.155Z,20.92
2022-10-31T09:48:27.565Z,23.23
2022-10-31T09:51:04.131Z,22.30
2022-10-31T09:53:55.465Z,21.95
2022-10-31T09:56:23.761Z,22.60
2022-10-31T09:58:59.081Z,19.50
2022-10-31T10:01:39.389Z,21.38
2022-10-31T10:04:36.899Z,23.87
2022-10-31T10:07:12.662Z,21.35
2022-10-31T10:09:39.150Z,21.48
2022-10-31T10:12:21.195Z,24.13
2022-10-31T10:15:12.137Z,22.38
2022-10-31T10:18:17.008Z,23.87
2022-10-31T10:21:04.889Z,23.55
2022-10-31T10:23:53.064Z,23.42
2022-10-31T10:26:22.459Z,25.25
2022-10-31T10:29:09.585Z,27.20
2022-10-31T10:31:43.316Z,24.30
2022-10-31T10:34:25.474Z,25.25
2022-10-31T10:37:05.556Z,27.60
2022-10-31T10:39:44.305Z,25.58
2022-10-31T10:42:35.005Z,24.35
2022-10-31T10:45:32.791Z,23.33
2022-10-31T10:48:10.540Z,23.27
2022-10-31T10:50:43.080Z,24.30
2022-10-31T10:53:35.219Z,23.98
2022-10-31T10:56:24.312Z,22.25
2022-10-31T10:58:50.722Z,21.17
2022-10-31T11:01:17.138Z,21.63
2022-10-31T11:03:43.605Z,21.65
2022-10-31T11:06:25.782Z,19.50
2022-10-31T11:08:53.295Z,18.92
2022-10-31T11:11:28.890Z,21.30
2022-10-31T11:14:04.591Z,21.27
2022-10-31T11:16:41.383Z,22.08
2022-10-31T11:19:15.698Z,23.52
2022-10-31T11:21:42.125Z,23.77
2022-10-31T11:24:11.467Z,23.60
2022-10-31T11:26:43.718Z,22.52
2022-10-31T11:29:18.431Z,24.35
2022-10-31T11:31:47.466Z,23.95
2022-10-31T11:34:30.894Z,22.52
2022-10-31T11:37:03.871Z,22.10
2022-10-31T11:39:30.336Z,22.85
2022-10-31T11:42:07.708Z,20.95
2022-10-31T11:44:35.385Z,23.45
2022-10-31T11:47:05.857Z,22.88
2022-10-31T11:49:44.556Z,22.20
2022-10-31T11:52:17.079Z,21.75
2022-10-31T11:54:49.822Z,20.73
2022-10-31T11:57:31.104Z,21.75
2022-10-31T12:00:04.638Z,22.92
2022-10-31T12:02:31.542Z,21.40
2022-10-31T12:05:07.686Z,23.77
2022-10-31T12:07:34.147Z,22.13
2022-10-31T12:10:00.717Z,24.25
2022-10-31T12:12:51.500Z,24.35
2022-10-31T12:15:29.953Z,23.47
2022-10-31T12:18:18.134Z,20.95
2022-10-31T12:21:15.920Z,19.65
2022-10-31T12:24:06.303Z,19.15
2022-10-31T12:27:04.737Z,20.02
2022-10-31T12:29:49.322Z,21.13
2022-10-31T12:32:30.042Z,19.05
2022-10-31T12:35:17.020Z,20.30
2022-10-31T12:37:54.022Z,20.27
2022-10-31T12:40:29.251Z,20.27
2022-10-31T12:43:24.918Z,21.27
2022-10-31T12:45:59.734Z,22.10
2022-10-31T12:48:47.400Z,20.38
2022-10-31T12:51:23.098Z,21.48
2022-10-31T12:53:58.270Z,21.77
2022-10-31T12:56:46.569Z,21.20
2022-10-31T12:59:32.726Z,22.88
2022-10-31T13:02:22.388Z,21.77
2022-10-31T13:04:55.987Z,18.92
2022-10-31T13:07:42.070Z,20.40
2022-10-31T13:10:19.157Z,18.50
2022-10-31T13:12:48.890Z,20.45
2022-10-31T13:15:35.942Z,17.20
2022-10-31T13:18:10.827Z,18.42
2022-10-31T13:20:45.030Z,18.55
2022-10-31T13:23:44.636Z,15.70
2022-10-31T13:26:13.039Z,18.17
2022-10-31T13:29:11.723Z,18.77
2022-10-31T13:31:41.717Z,15.82
2022-10-31T13:34:23.605Z,14.57
2022-10-31T13:37:00.686Z,15.93
2022-10-31T13:39:47.669Z,15.40
2022-10-31T13:42:37.728Z,15.93
2022-10-31T13:45:19.661Z,17.10
2022-10-31T13:48:16.401Z,17.08
2022-10-31T13:50:55.296Z,16.10
2022-10-31T13:53:23.778Z,15.15
2022-10-31T13:56:03.358Z,17.75
2022-10-31T13:58:31.497Z,13.35
2022-10-31T14:01:13.127Z,11.85
2022-10-31T14:06:50.616Z,11.35
2022-10-31T14:09:21.427Z,14.27
2022-10-31T14:11:49.056Z,14.30
2022-10-31T14:14:16.333Z,13.55
2022-10-31T14:16:45.295Z,11.57
2022-10-31T14:19:18.840Z,12.60
2022-10-31T14:21:49.739Z,10.20
2022-10-31T14:24:25.176Z,10.82
2022-10-31T14:26:54.565Z,9.10
2022-10-31T14:29:29.973Z,9.07
2022-10-31T14:32:01.255Z,9.43
2022-10-31T14:34:35.836Z,9.40
2022-10-31T14:37:33.286Z,8.48
2022-10-31T14:40:28.709Z,8.93
2022-10-31T14:43:23.838Z,11.13
2022-10-31T14:46:14.701Z,7.57
2022-10-31T14:49:05.568Z,8.85
2022-10-31T14:51:40.376Z,9.65
2022-10-31T14:54:12.443Z,9.40
2022-10-31T14:56:48.445Z,10.30
2022-10-31T14:59:19.314Z,10.43
2022-10-31T15:02:02.578Z,8.75
2022-10-31T15:04:33.439Z,9.93
2022-10-31T15:07:23.265Z,11.27
2022-10-31T15:09:59.211Z,10.47
2022-10-31T15:12:31.421Z,8.98
2022-10-31T15:14:59.662Z,11.68
2022-10-31T15:17:27.511Z,9.48
2022-10-31T15:19:54.578Z,10.77
2022-10-31T15:22:24.313Z,9.73
2022-10-31T15:24:57.057Z,11.70
2022-10-31T15:27:24.761Z,13.25
2022-10-31T15:29:55.843Z,12.98
2022-10-31T15:32:27.550Z,12.63
2022-10-31T15:34:56.928Z,11.17
2022-10-31T15:37:26.374Z,13.13
2022-10-31T15:39:53.181Z,15.13
2022-10-31T15:42:36.392Z,14.02
2022-10-31T15:45:14.686Z,15.00
2022-10-31T15:47:50.152Z,19.70
2022-10-31T15:50:24.369Z,70.25
2022-10-31T15:52:51.232Z,43.53
2022-10-31T15:55:20.355Z,27.65
2022-10-31T15:57:52.068Z,18.63
2022-10-31T16:00:39.330Z,19.50
2022-10-31T16:03:11.050Z,16.15
2022-10-31T16:05:49.310Z,15.90
2022-10-31T16:08:33.014Z,16.48
2022-10-31T16:11:08.665Z,20.00
2022-10-31T16:13:38.860Z,19.90
2022-10-31T16:19:02.034Z,17.25
2022-10-31T16:21:36.119Z,18.60
2022-10-31T16:24:20.784Z,19.65
2022-10-31T16:26:52.661Z,19.63
2022-10-31T16:29:28.396Z,19.42
2022-10-31T16:31:54.891Z,23.15
2022-10-31T16:34:26.576Z,21.23
2022-10-31T16:36:53.602Z,22.70
2022-10-31T16:39:20.376Z,21.43
2022-10-31T16:41:49.349Z,26.55
2022-10-31T16:44:23.043Z,22.67
2022-10-31T16:47:09.135Z,22.20
2022-10-31T16:49:35.584Z,21.58
2022-10-31T16:52:01.932Z,21.20
2022-10-31T16:54:29.819Z,22.45
2022-10-31T16:56:56.277Z,23.98
2022-10-31T16:59:22.645Z,21.80
2022-10-31T17:01:50.027Z,29.05
2022-10-31T17:04:16.667Z,27.57
2022-10-31T17:06:43.204Z,24.65
2022-10-31T17:09:09.994Z,25.38
2022-10-31T17:11:36.987Z,27.83
2022-10-31T17:14:04.698Z,30.20
2022-10-31T17:16:31.041Z,26.73
2022-10-31T17:18:57.430Z,30.17
2022-10-31T17:21:25.441Z,28.73
2022-10-31T17:23:52.121Z,29.50
2022-10-31T17:26:18.890Z,31.38
2022-10-31T17:28:45.282Z,33.43
2022-10-31T17:31:21.227Z,32.92
2022-10-31T17:33:47.618Z,35.95
2022-10-31T17:36:13.970Z,37.03
2022-10-31T17:38:40.486Z,35.38
2022-10-31T17:41:11.055Z,34.97
2022-10-31T17:43:38.216Z,40.00
2022-10-31T17:46:04.835Z,37.15
2022-10-31T17:48:31.361Z,39.97
2022-10-31T17:51:01.093Z,40.67
2022-10-31T17:53:32.027Z,40.13
2022-10-31T17:56:09.425Z,44.92
2022-10-31T17:58:37.235Z,44.80
2022-10-31T18:01:11.889Z,43.75
2022-10-31T18:03:39.204Z,48.53
2022-10-31T18:06:06.351Z,39.33
2022-10-31T18:08:35.281Z,43.85
2022-10-31T18:11:09.410Z,44.78
2022-10-31T18:13:36.277Z,45.75
2022-10-31T18:16:06.424Z,46.15
2022-10-31T18:18:32.790Z,45.10
2022-10-31T18:20:59.130Z,44.05
2022-10-31T18:23:25.606Z,46.55
2022-10-31T18:25:51.964Z,50.22
2022-10-31T18:28:18.309Z,47.33
2022-10-31T18:30:44.655Z,49.73
2022-10-31T18:33:11.306Z,47.45
2022-10-31T18:35:38.687Z,46.30
2022-10-31T18:38:06.772Z,46.08
2022-10-31T18:40:35.309Z,45.35
2022-10-31T18:43:03.048Z,43.73
2022-10-31T18:45:45.380Z,47.65
2022-10-31T18:48:14.371Z,49.90
2022-10-31T18:50:41.751Z,48.30
2022-10-31T18:53:08.176Z,48.88
2022-10-31T18:55:38.480Z,49.27
2022-10-31T18:58:04.813Z,49.60
2022-10-31T19:00:31.154Z,48.78
2022-10-31T19:02:57.592Z,49.35
2022-10-31T19:05:24.180Z,45.15
2022-10-31T19:07:50.541Z,45.80
2022-10-31T19:10:16.999Z,55.60
2022-10-31T19:12:43.337Z,54.22
2022-10-31T19:15:10.095Z,50.53
2022-10-31T19:17:36.447Z,47.35
2022-10-31T19:20:02.866Z,47.33
2022-10-31T19:22:31.144Z,48.33
2022-10-31T19:24:57.522Z,50.55
2022-10-31T19:27:26.351Z,49.42
2022-10-31T19:29:54.841Z,48.50
2022-10-31T19:32:21.211Z,49.80
2022-10-31T19:34:47.589Z,50.90
2022-10-31T19:37:14.130Z,50.15
2022-10-31T19:39:44.129Z,54.35
2022-10-31T19:42:11.082Z,54.90
2022-10-31T19:44:37.498Z,58.47
2022-10-31T19:47:03.892Z,50.08
2022-10-31T19:49:30.271Z,50.42
2022-10-31T19:51:56.694Z,52.03
2022-10-31T19:54:23.418Z,49.88
2022-10-31T19:56:49.826Z,54.77
2022-10-31T19:59:16.166Z,49.13
2022-10-31T20:01:42.596Z,52.15
2022-10-31T20:04:09.259Z,50.33
2022-10-31T20:06:38.586Z,51.63
2022-10-31T20:09:09.799Z,54.87
2022-10-31T20:11:37.772Z,51.92
2022-10-31T20:14:04.677Z,49.72
2022-10-31T20:16:32.406Z,52.33
2022-10-31T20:18:59.751Z,49.05
2022-10-31T20:21:28.847Z,50.90
2022-10-31T20:24:03.465Z,54.42
2022-10-31T20:26:31.312Z,52.40
2022-10-31T20:28:58.912Z,46.67
2022-10-31T20:31:28.592Z,48.67
2022-10-31T20:33:55.716Z,48.20
2022-10-31T20:36:23.282Z,48.72
2022-10-31T20:38:51.406Z,50.75
2022-10-31T20:41:18.184Z,47.42
2022-10-31T20:43:45.240Z,47.90
2022-10-31T20:46:20.425Z,46.43
2022-10-31T20:48:47.609Z,45.80
2022-10-31T20:51:22.662Z,47.40
2022-10-31T20:53:51.093Z,45.60
2022-10-31T20:56:22.909Z,46.03
2022-10-31T20:58:50.181Z,49.50
2022-10-31T21:01:22.312Z,48.80
2022-10-31T21:03:49.766Z,44.80
2022-10-31T21:06:17.253Z,50.70
2022-10-31T21:08:44.239Z,41.25
2022-10-31T21:11:17.064Z,41.83
2022-10-31T21:13:45.338Z,42.25
2022-10-31T21:16:14.865Z,43.83
2022-10-31T21:18:42.819Z,39.50
2022-10-31T21:21:11.720Z,38.78
2022-10-31T21:23:38.990Z,40.40
2022-10-31T21:26:08.528Z,36.97
2022-10-31T21:28:35.626Z,38.90
2022-10-31T21:31:06.289Z,40.53
2022-10-31T21:33:32.810Z,36.78
2022-10-31T21:35:59.266Z,34.93
2022-10-31T21:38:25.666Z,34.90
2022-10-31T21:41:01.082Z,38.83
2022-10-31T21:43:28.365Z,37.22
2022-10-31T21:45:54.762Z,35.28
2022-10-31T21:48:21.251Z,34.60
2022-10-31T21:50:47.607Z,37.83
2022-10-31T21:53:32.282Z,34.20
2022-10-31T21:56:07.926Z,34.30
2022-10-31T21:58:36.325Z,33.38
2022-10-31T22:01:05.315Z,36.03
2022-10-31T22:03:37.725Z,33.17
2022-10-31T22:06:05.789Z,32.60
2022-10-31T22:08:32.223Z,32.03
2022-10-31T22:11:06.827Z,33.40
2022-10-31T22:13:34.227Z,28.80
2022-10-31T22:16:06.281Z,26.52
2022-10-31T22:18:32.919Z,27.10
2022-10-31T22:21:10.197Z,30.23
2022-10-31T22:23:37.122Z,27.80
2022-10-31T22:26:05.737Z,28.93
2022-10-31T22:28:33.370Z,29.58
2022-10-31T22:31:05.094Z,28.60
2022-10-31T22:33:31.791Z,28.77
2022-10-31T22:36:03.069Z,29.63
2022-10-31T22:38:31.007Z,27.90
2022-10-31T22:40:58.538Z,32.85
2022-10-31T22:43:25.437Z,25.40
2022-10-31T22:46:03.626Z,28.02
2022-10-31T22:48:31.788Z,26.52
2022-10-31T22:51:05.618Z,27.67
2022-10-31T22:53:34.142Z,30.63
2022-10-31T22:56:00.584Z,28.48
2022-10-31T22:58:29.436Z,30.73
2022-10-31T23:00:56.104Z,27.08
2022-10-31T23:03:23.085Z,30.07
2022-10-31T23:06:01.995Z,28.70
2022-10-31T23:08:29.619Z,26.98
2022-10-31T23:10:56.134Z,27.20
2022-10-31T23:13:41.525Z,27.27
2022-10-31T23:16:09.835Z,26.03
2022-10-31T23:18:49.511Z,26.15
2022-10-31T23:21:37.310Z,29.63
2022-10-31T23:24:04.191Z,26.50
2022-10-31T23:26:48.968Z,29.45
2022-10-31T23:29:15.299Z,24.20
2022-10-31T23:31:41.702Z,25.50
2022-10-31T23:34:08.087Z,25.65
2022-10-31T23:36:34.449Z,26.77
2022-10-31T23:39:00.799Z,26.20
2022-10-31T23:41:27.177Z,27.07
2022-10-31T23:43:53.550Z,31.20
2022-10-31T23:46:19.886Z,28.92
2022-10-31T23:48:49.245Z,27.55
2022-10-31T23:51:15.734Z,27.17
2022-10-31T23:53:45.925Z,24.07
2022-10-31T23:56:13.180Z,26.98
2022-10-31T23:58:40.159Z,25.67
